Time;durP1;ratioP1;P1;durP2;ratioP2;P2;SDS_P1;SDS_P2;PMS_P1;PMS_P2;Temp;Humidity;BMP_temperature;BMP_pressure;BME280_temperature;BME280_humidity;BME280_pressure;Samples;Min_cycle;Max_cycle;Signal;HPM_P1;HPM_P2
2022/04/29 00:00:09;;;;;;;17.05;10.98;;;;;;;8.31;68.37;100806.97;5078384;28;20047;-69
2022/04/29 00:02:36;;;;;;;19.35;11.88;;;;;;;8.35;68.36;100808.63;5078355;28;20111;-69
2022/04/29 00:05:02;;;;;;;18.80;10.73;;;;;;;8.39;67.61;100804.16;5077941;28;20076;-69
2022/04/29 00:07:27;;;;;;;11.70;9.07;;;;;;;8.48;67.31;100803.97;5093325;28;20031;-69
2022/04/29 00:09:52;;;;;;;15.50;10.30;;;;;;;8.46;67.78;100797.03;5074987;28;20033;-69
2022/04/29 00:12:19;;;;;;;18.02;10.95;;;;;;;8.40;67.79;100797.19;5073325;28;20040;-69
2022/04/29 00:14:45;;;;;;;19.52;10.27;;;;;;;8.37;68.02;100792.84;5074831;28;20113;-68
2022/04/29 00:17:11;;;;;;;16.67;11.27;;;;;;;8.37;67.92;100798.09;5088747;28;20072;-68
2022/04/29 00:19:37;;;;;;;14.82;10.20;;;;;;;8.38;68.24;100784.91;5073226;28;20511;-68
2022/04/29 00:22:03;;;;;;;16.55;10.10;;;;;;;8.38;68.49;100786.69;5070662;28;20063;-68
2022/04/29 00:24:28;;;;;;;17.75;11.90;;;;;;;8.31;68.32;100788.56;5072191;28;20028;-70
2022/04/29 00:26:54;;;;;;;19.33;11.30;;;;;;;8.28;68.56;100785.19;5072298;28;20036;-69
2022/04/29 00:29:20;;;;;;;18.95;10.20;;;;;;;8.21;69.30;100778.34;5072365;28;20032;-69
2022/04/29 00:31:45;;;;;;;16.83;10.80;;;;;;;8.19;69.05;100780.97;5071790;28;20122;-69
2022/04/29 00:34:11;;;;;;;16.08;10.55;;;;;;;8.22;69.18;100778.31;5072307;28;20037;-69
2022/04/29 00:36:36;;;;;;;16.85;10.65;;;;;;;8.22;68.73;100775.69;5072458;28;20043;-69
2022/04/29 00:39:02;;;;;;;15.25;11.13;;;;;;;8.20;68.88;100774.84;5072161;28;20480;-69
2022/04/29 00:41:28;;;;;;;19.05;12.35;;;;;;;8.18;68.99;100769.63;5071330;28;20044;-69
2022/04/29 00:44:09;;;;;;;21.55;11.13;;;;;;;8.11;69.47;100773.28;5073154;28;20036;-69
2022/04/29 00:46:44;;;;;;;21.40;12.18;;;;;;;8.04;70.29;100773.47;5074969;28;20162;-69
2022/04/29 00:49:13;;;;;;;17.25;11.55;;;;;;;8.03;70.05;100767.34;5074668;28;20033;-68
2022/04/29 00:51:43;;;;;;;14.43;9.80;;;;;;;8.01;70.02;100768.28;5072855;28;20518;-68
2022/04/29 00:54:13;;;;;;;21.50;10.27;;;;;;;8.01;69.84;100763.03;5072262;28;20127;-68
2022/04/29 00:56:41;;;;;;;15.45;11.13;;;;;;;7.94;69.95;100762.31;5069022;28;20088;-68
2022/04/29 00:59:15;;;;;;;18.23;10.30;;;;;;;7.88;70.78;100758.06;5072320;28;20062;-68
2022/04/29 01:01:43;;;;;;;15.48;11.88;;;;;;;7.81;70.83;100755.63;5058650;28;20033;-69
2022/04/29 01:04:11;;;;;;;18.08;11.85;;;;;;;7.80;70.74;100754.75;5072460;28;20086;-69
2022/04/29 01:06:37;;;;;;;19.17;11.32;;;;;;;7.76;70.82;100749.63;5074122;28;20033;-69
2022/04/29 01:09:02;;;;;;;20.10;11.38;;;;;;;7.71;71.41;100747.09;5076885;28;20063;-69
2022/04/29 01:11:27;;;;;;;23.77;12.95;;;;;;;7.68;71.30;100752.41;5077074;28;20036;-69
2022/04/29 01:13:54;;;;;;;18.20;12.05;;;;;;;7.66;71.81;100741.94;5078002;28;20033;-69
2022/04/29 01:16:21;;;;;;;16.48;10.52;;;;;;;7.70;71.41;100740.97;5071369;28;20029;-68
2022/04/29 01:18:48;;;;;;;19.17;11.65;;;;;;;7.72;71.16;100744.41;5071938;28;20063;-69
2022/04/29 01:21:13;;;;;;;18.15;12.25;;;;;;;7.65;71.63;100744.56;5069726;28;20025;-69
2022/04/29 01:23:41;;;;;;;21.63;10.90;;;;;;;7.60;71.49;100746.44;5071705;28;20036;-68
2022/04/29 01:26:06;;;;;;;15.77;11.55;;;;;;;7.58;71.92;100742.97;5071486;28;20039;-70
2022/04/29 01:28:33;;;;;;;14.70;10.32;;;;;;;7.61;71.48;100735.06;5071175;28;20124;-68
2022/04/29 01:30:59;;;;;;;22.83;11.98;;;;;;;7.63;71.52;100735.88;5068928;28;20039;-68
2022/04/29 01:33:28;;;;;;;17.35;11.90;;;;;;;7.61;71.60;100735.91;5071023;28;20107;-69
2022/04/29 01:35:54;;;;;;;19.08;10.82;;;;;;;7.60;71.29;100735.94;5070952;28;20071;-70
2022/04/29 01:38:19;;;;;;;24.40;12.43;;;;;;;7.55;72.03;100735.19;5086025;28;20025;-69
2022/04/29 01:40:45;;;;;;;17.73;12.45;;;;;;;7.56;71.82;100740.41;5070076;28;20029;-69
2022/04/29 01:43:11;;;;;;;22.15;12.57;;;;;;;7.58;71.67;100729.84;5070411;28;20036;-69
2022/04/29 01:45:36;;;;;;;20.25;13.02;;;;;;;7.58;71.59;100732.47;5070499;28;20476;-70
2022/04/29 01:48:01;;;;;;;21.98;12.70;;;;;;;7.56;71.74;100731.69;5070257;28;20709;-69
2022/04/29 01:50:27;;;;;;;20.77;11.73;;;;;;;7.50;72.15;100736.13;5088433;28;20488;-69
2022/04/29 01:52:52;;;;;;;21.70;13.15;;;;;;;7.45;72.51;100727.50;5072824;28;20424;-68
2022/04/29 01:55:18;;;;;;;19.27;12.85;;;;;;;7.41;72.63;100718.00;5073692;28;20100;-70
2022/04/29 01:57:48;;;;;;;21.92;13.18;;;;;;;7.41;72.58;100722.34;5073164;28;20486;-70
2022/04/29 02:00:15;;;;;;;16.10;11.68;;;;;;;7.32;72.93;100715.56;5073653;28;20048;-69
2022/04/29 02:02:41;;;;;;;20.17;12.48;;;;;;;7.28;73.26;100713.88;5072996;28;20067;-69
2022/04/29 02:05:07;;;;;;;24.33;10.25;;;;;;;7.32;73.11;100708.53;5073262;28;20064;-69
2022/04/29 02:07:32;;;;;;;16.98;10.50;;;;;;;7.37;73.13;100707.59;5073718;28;20048;-70
2022/04/29 02:09:57;;;;;;;14.48;10.45;;;;;;;7.40;72.78;100711.00;5073610;28;20036;-69
2022/04/29 02:12:22;;;;;;;19.65;11.52;;;;;;;7.41;72.92;100714.47;5073428;28;20505;-69
2022/04/29 02:14:48;;;;;;;19.20;12.38;;;;;;;7.42;72.40;100714.44;5074028;28;20496;-70
2022/04/29 02:17:14;;;;;;;17.42;12.13;;;;;;;7.38;73.42;100717.16;5073677;28;20037;-68
2022/04/29 02:19:39;;;;;;;16.55;10.65;;;;;;;7.41;72.89;100715.38;5073457;28;20059;-67
2022/04/29 02:22:06;;;;;;;20.73;13.98;;;;;;;7.45;72.79;100716.16;5073463;28;20032;-68
2022/04/29 02:24:32;;;;;;;20.52;12.25;;;;;;;7.50;72.86;100720.38;5073468;28;20102;-69
2022/04/29 02:26:59;;;;;;;23.45;12.48;;;;;;;7.52;72.75;100713.34;5074073;28;20100;-70
2022/04/29 02:29:25;;;;;;;16.42;11.15;;;;;;;7.55;72.61;100714.19;5074368;28;20040;-69
2022/04/29 02:31:52;;;;;;;16.95;10.48;;;;;;;7.57;72.21;100717.66;5073117;28;20378;-69
2022/04/29 02:34:18;;;;;;;15.35;11.38;;;;;;;7.61;72.28;100711.44;5073399;28;20032;-69
2022/04/29 02:36:43;;;;;;;15.55;12.45;;;;;;;7.55;72.33;100714.19;5072368;28;20059;-71
2022/04/29 02:39:08;;;;;;;19.60;12.70;;;;;;;7.48;72.65;100709.09;5073717;28;20480;-70
2022/04/29 02:41:35;;;;;;;20.23;11.40;;;;;;;7.46;73.11;100710.88;5072588;28;20138;-70
2022/04/29 02:44:00;;;;;;;21.80;13.30;;;;;;;7.49;72.90;100704.69;5072714;28;20033;-70
2022/04/29 02:46:25;;;;;;;18.05;10.75;;;;;;;7.48;73.40;100700.34;5070562;28;20078;-70
2022/04/29 02:48:51;;;;;;;21.70;13.27;;;;;;;7.48;73.47;100700.34;5067985;28;20060;-69
2022/04/29 02:51:17;;;;;;;21.95;13.48;;;;;;;7.51;73.66;100700.28;5068788;28;20025;-67
2022/04/29 02:53:43;;;;;;;17.95;11.85;;;;;;;7.52;73.33;100705.47;5068951;28;20025;-70
2022/04/29 02:56:08;;;;;;;28.13;16.73;;;;;;;7.46;73.67;100700.38;5069834;28;20036;-71
2022/04/29 02:58:34;;;;;;;22.75;13.38;;;;;;;7.49;73.60;100702.94;5069053;28;20036;-70
2022/04/29 03:00:59;;;;;;;22.73;13.77;;;;;;;7.47;73.59;100706.50;5070918;28;20087;-70
2022/04/29 03:03:24;;;;;;;23.67;14.65;;;;;;;7.50;73.29;100714.28;5084525;28;20032;-71
2022/04/29 03:05:50;;;;;;;18.85;12.70;;;;;;;7.48;73.72;100711.72;5068836;28;20025;-71
2022/04/29 03:08:15;;;;;;;20.55;11.80;;;;;;;7.48;73.33;100709.09;5071563;28;20490;-69
2022/04/29 03:10:41;;;;;;;21.30;12.95;;;;;;;7.51;73.29;100710.78;5073334;28;20040;-68
2022/04/29 03:13:06;;;;;;;19.88;12.52;;;;;;;7.58;72.64;100711.50;5075411;28;20025;-69
2022/04/29 03:15:33;;;;;;;20.65;12.40;;;;;;;7.56;72.81;100700.19;5077039;28;20138;-68
2022/04/29 03:20:43;;;;;;;23.98;12.75;;;;;;;7.62;72.86;100706.16;5076663;28;20042;-68
2022/04/29 03:23:09;;;;;;;22.30;13.05;;;;;;;7.55;73.01;100707.19;5077473;28;20043;-70
2022/04/29 03:25:35;;;;;;;26.73;14.57;;;;;;;7.50;73.58;100704.66;5077622;28;20033;-68
2022/04/29 03:28:01;;;;;;;18.55;11.93;;;;;;;7.50;73.47;100701.16;5077374;28;20028;-68
2022/04/29 03:30:26;;;;;;;23.20;12.90;;;;;;;7.46;73.78;100695.13;5076759;28;20036;-68
2022/04/29 03:32:58;;;;;;;22.27;14.60;;;;;;;7.40;74.29;100694.41;5076884;28;20029;-69
2022/04/29 03:35:24;;;;;;;22.83;13.40;;;;;;;7.41;74.34;100689.13;5077573;28;20126;-70
2022/04/29 03:37:52;;;;;;;19.33;11.70;;;;;;;7.41;73.93;100696.09;5081496;28;20032;-70
2022/04/29 03:40:22;;;;;;;21.02;11.15;;;;;;;7.46;73.92;100692.50;5080667;28;20040;-70
2022/04/29 03:42:53;;;;;;;21.63;14.27;;;;;;;7.49;73.96;100688.97;5080080;28;20426;-69
2022/04/29 03:45:20;;;;;;;22.77;15.38;;;;;;;7.42;74.18;100693.47;5080086;28;20036;-69
2022/04/29 03:47:46;;;;;;;21.90;12.98;;;;;;;7.39;74.60;100685.66;5080092;28;20462;-69
2022/04/29 03:50:12;;;;;;;20.67;15.23;;;;;;;7.40;74.47;100684.75;5079516;28;20063;-70
2022/04/29 03:52:47;;;;;;;28.38;13.27;;;;;;;7.37;74.29;100689.22;5072973;28;20028;-70
2022/04/29 03:55:17;;;;;;;23.25;15.10;;;;;;;7.35;74.92;100691.88;5076170;28;20064;-70
2022/04/29 03:57:43;;;;;;;19.80;13.98;;;;;;;7.36;74.62;100696.25;5072745;28;20484;-70
2022/04/29 04:00:09;;;;;;;25.25;14.27;;;;;;;7.37;74.57;100697.09;5075654;28;20128;-69
2022/04/29 04:02:35;;;;;;;22.45;14.73;;;;;;;7.41;74.67;100697.00;5075489;28;20025;-69
2022/04/29 04:05:00;;;;;;;24.23;15.38;;;;;;;7.44;74.79;100690.81;5072381;28;20036;-70
2022/04/29 04:07:26;;;;;;;17.95;12.85;;;;;;;7.47;74.48;100688.13;5075685;28;20029;-69
2022/04/29 04:09:51;;;;;;;20.98;11.95;;;;;;;7.51;74.67;100688.03;5072504;28;20028;-69
2022/04/29 04:12:17;;;;;;;18.73;13.23;;;;;;;7.53;74.70;100683.63;5072050;28;20040;-69
2022/04/29 04:14:43;;;;;;;24.77;14.80;;;;;;;7.51;74.75;100685.41;5072472;28;20036;-69
2022/04/29 04:17:08;;;;;;;21.58;13.93;;;;;;;7.52;74.69;100686.25;5072984;28;20407;-69
2022/04/29 04:19:35;;;;;;;21.00;14.18;;;;;;;7.53;74.49;100683.63;5073477;28;20028;-69
2022/04/29 04:22:01;;;;;;;25.00;13.38;;;;;;;7.58;74.54;100687.88;5075327;28;20051;-69
2022/04/29 04:24:26;;;;;;;27.38;15.68;;;;;;;7.61;74.30;100696.56;5078166;28;20202;-69
2022/04/29 04:26:52;;;;;;;25.50;14.52;;;;;;;7.56;74.74;100695.81;5075577;28;20056;-69
2022/04/29 04:29:17;;;;;;;18.83;14.18;;;;;;;7.51;74.57;100700.28;5073063;28;20467;-69
2022/04/29 04:31:42;;;;;;;20.38;12.70;;;;;;;7.48;75.51;100695.97;5073589;28;20041;-69
2022/04/29 04:34:49;;;;;;;21.13;13.70;;;;;;;7.50;75.31;100696.78;5073241;28;20092;-69
2022/04/29 04:37:07;;;;;;;22.25;14.48;;;;;;;7.56;74.81;100695.81;5072255;28;20036;-69
2022/04/29 04:39:32;;;;;;;21.80;12.98;;;;;;;7.57;74.80;100700.13;5074711;28;20052;-68
2022/04/29 04:41:57;;;;;;;19.25;13.35;;;;;;;7.59;75.20;100702.75;5074849;28;20454;-70
2022/04/29 04:44:23;;;;;;;21.88;14.40;;;;;;;7.60;74.53;100696.59;5076170;28;20417;-68
2022/04/29 04:46:49;;;;;;;27.48;15.50;;;;;;;7.58;74.93;100703.63;5076067;28;20032;-69
2022/04/29 04:49:15;;;;;;;20.17;13.55;;;;;;;7.61;75.25;100701.81;5075837;28;20052;-69
2022/04/29 04:51:41;;;;;;;22.88;13.00;;;;;;;7.64;74.87;100695.63;5075684;28;20025;-70
2022/04/29 04:54:06;;;;;;;24.10;13.45;;;;;;;7.70;74.24;100703.34;5074729;28;20033;-69
2022/04/29 04:56:32;;;;;;;27.50;15.73;;;;;;;7.68;74.82;100702.53;5075799;28;20096;-70
2022/04/29 04:58:57;;;;;;;25.92;14.77;;;;;;;7.70;75.03;100698.09;5075545;28;20119;-69
2022/04/29 05:01:23;;;;;;;19.48;12.55;;;;;;;7.73;74.69;100701.53;5073011;28;20028;-71
2022/04/29 05:03:48;;;;;;;26.42;15.02;;;;;;;7.76;74.84;100700.59;5088655;28;20032;-70
2022/04/29 05:06:14;;;;;;;23.95;14.40;;;;;;;7.79;74.41;100703.16;5091843;28;20039;-70
2022/04/29 05:08:39;;;;;;;28.45;15.57;;;;;;;7.82;74.25;100697.81;5079445;28;20227;-69
2022/04/29 05:11:04;;;;;;;29.90;14.65;;;;;;;7.85;74.78;100695.13;5078238;28;20047;-69
2022/04/29 05:13:30;;;;;;;26.63;18.27;;;;;;;7.89;74.82;100691.53;5074779;28;20035;-69
2022/04/29 05:15:57;;;;;;;22.17;14.48;;;;;;;7.94;74.21;100696.66;5072754;28;20032;-70
2022/04/29 05:18:22;;;;;;;21.98;15.35;;;;;;;8.03;73.86;100699.09;5070105;28;20500;-70
2022/04/29 05:20:48;;;;;;;26.77;15.65;;;;;;;8.09;73.89;100688.41;5070173;28;20028;-69
2022/04/29 05:23:14;;;;;;;23.52;15.90;;;;;;;8.12;74.01;100684.84;5071019;28;20036;-71
2022/04/29 05:25:39;;;;;;;30.52;16.17;;;;;;;8.21;73.80;100697.75;5071373;28;20540;-70
2022/04/29 05:28:05;;;;;;;31.40;15.98;;;;;;;8.28;72.71;100693.22;5070620;28;20388;-70
2022/04/29 05:30:31;;;;;;;35.40;16.58;;;;;;;8.33;72.49;100686.94;5070361;28;20408;-69
2022/04/29 05:32:58;;;;;;;32.83;17.30;;;;;;;8.41;72.00;100692.03;5071336;28;20033;-69
2022/04/29 05:35:23;;;;;;;23.90;15.13;;;;;;;8.48;72.00;100690.13;5070414;28;20434;-69
2022/04/29 05:37:50;;;;;;;28.55;16.80;;;;;;;8.51;71.69;100687.41;5071118;28;20107;-70
2022/04/29 05:43:00;;;;;;;29.33;14.90;;;;;;;8.57;71.83;100696.00;5073956;28;20067;-69
2022/04/29 05:45:25;;;;;;;26.90;14.73;;;;;;;8.60;71.62;100693.28;5072820;28;20404;-70
2022/04/29 05:47:51;;;;;;;31.52;17.55;;;;;;;8.68;71.07;100700.09;5072041;28;20420;-69
2022/04/29 05:50:16;;;;;;;28.48;15.60;;;;;;;8.75;70.40;100694.63;5070399;28;20454;-69
2022/04/29 05:52:41;;;;;;;24.88;16.70;;;;;;;8.78;71.35;100699.81;5070534;28;20071;-69
2022/04/29 05:55:07;;;;;;;24.92;16.67;;;;;;;8.91;70.21;100704.72;5068778;28;20037;-69
2022/04/29 05:57:33;;;;;;;36.80;20.48;;;;;;;8.99;70.05;100702.78;5070542;28;20489;-69
2022/04/29 06:00:01;;;;;;;27.50;17.15;;;;;;;9.08;70.20;100701.63;5072247;28;20052;-72
2022/04/29 06:02:26;;;;;;;34.78;17.88;;;;;;;9.10;70.76;100690.16;5074183;28;20106;-69
2022/04/29 06:04:52;;;;;;;34.28;17.58;;;;;;;9.20;69.15;100691.59;5070980;28;20441;-70
2022/04/29 06:07:17;;;;;;;27.67;17.98;;;;;;;9.31;68.50;100691.31;5070689;28;20048;-69
2022/04/29 06:09:43;;;;;;;25.73;16.23;;;;;;;9.40;68.30;100691.06;5071102;28;20040;-69
2022/04/29 06:12:09;;;;;;;29.08;17.02;;;;;;;9.50;68.28;100691.66;5069650;28;20920;-70
2022/04/29 06:14:35;;;;;;;27.77;15.88;;;;;;;9.63;68.28;100692.13;5068519;28;20045;-69
2022/04/29 06:17:00;;;;;;;28.40;17.77;;;;;;;9.73;67.65;100693.56;5069865;28;20044;-69
2022/04/29 06:19:26;;;;;;;34.67;18.70;;;;;;;9.81;67.30;100696.81;5069853;28;20029;-68
2022/04/29 06:21:51;;;;;;;26.98;15.85;;;;;;;9.94;66.56;100704.31;5069410;28;20040;-69
2022/04/29 06:24:16;;;;;;;29.25;19.15;;;;;;;10.01;66.44;100711.97;5068571;28;20439;-69
2022/04/29 06:26:42;;;;;;;29.23;18.67;;;;;;;10.12;65.53;100705.53;5070443;28;20035;-68
2022/04/29 06:29:07;;;;;;;26.58;18.75;;;;;;;10.20;65.57;100706.97;5074053;28;20177;-68
2022/04/29 06:31:33;;;;;;;27.35;15.35;;;;;;;10.22;65.39;100710.44;5069938;28;20089;-68
2022/04/29 06:33:58;;;;;;;32.22;17.50;;;;;;;10.21;64.96;100708.69;5069378;28;20067;-67
2022/04/29 06:36:23;;;;;;;41.72;18.85;;;;;;;10.24;65.41;100710.38;5070502;28;20035;-70
2022/04/29 06:38:49;;;;;;;33.67;18.38;;;;;;;10.24;65.10;100707.75;5070802;28;20106;-70
2022/04/29 06:41:14;;;;;;;41.65;19.75;;;;;;;10.18;65.33;100714.06;5073539;28;20032;-67
2022/04/29 06:43:39;;;;;;;30.17;19.00;;;;;;;10.21;64.92;100711.31;5076591;28;20029;-69
2022/04/29 06:46:05;;;;;;;29.85;18.00;;;;;;;10.19;65.30;100714.91;5080982;28;20039;-68
2022/04/29 06:48:30;;;;;;;27.15;17.98;;;;;;;10.21;65.09;100702.56;5077553;28;20032;-68
2022/04/29 06:50:55;;;;;;;25.17;17.10;;;;;;;10.21;65.32;100706.03;5074312;28;20480;-69
2022/04/29 06:53:21;;;;;;;33.20;18.65;;;;;;;10.26;65.07;100711.16;5072770;28;20093;-68
2022/04/29 06:55:47;;;;;;;35.90;17.20;;;;;;;10.41;64.98;100709.84;5072019;28;20483;-67
2022/04/29 06:58:12;;;;;;;35.08;18.08;;;;;;;10.51;64.37;100714.75;5072484;28;20032;-67
2022/04/29 07:00:40;;;;;;;30.75;19.98;;;;;;;10.55;63.88;100718.13;5072726;28;20488;-68
2022/04/29 07:03:05;;;;;;;37.65;20.10;;;;;;;10.65;64.04;100719.53;5072307;28;20036;-69
2022/04/29 07:05:32;;;;;;;37.38;20.85;;;;;;;10.66;63.72;100723.91;5073685;28;20031;-68
2022/04/29 07:07:58;;;;;;;31.50;17.50;;;;;;;10.72;63.76;100717.56;5088587;28;20028;-68
2022/04/29 07:10:24;;;;;;;32.03;19.58;;;;;;;10.72;63.89;100720.19;5073157;28;20539;-69
2022/04/29 07:12:50;;;;;;;30.77;19.20;;;;;;;10.71;63.67;100723.75;5072326;28;20052;-69
2022/04/29 07:15:16;;;;;;;29.23;16.77;;;;;;;10.77;63.79;100712.97;5072594;28;20036;-69
2022/04/29 07:17:44;;;;;;;43.47;20.38;;;;;;;10.80;63.47;100719.94;5071588;28;20063;-69
2022/04/29 07:20:14;;;;;;;33.38;19.73;;;;;;;10.89;62.88;100717.81;5070589;28;20033;-69
2022/04/29 07:22:41;;;;;;;38.42;18.92;;;;;;;10.82;63.09;100718.09;5069350;28;20078;-70
2022/04/29 07:25:09;;;;;;;29.30;18.02;;;;;;;10.83;63.11;100719.81;5069630;28;20036;-70
2022/04/29 07:27:34;;;;;;;33.35;19.15;;;;;;;10.91;63.09;100721.28;5070000;28;20036;-69
2022/04/29 07:30:01;;;;;;;33.60;20.92;;;;;;;10.95;62.93;100711.47;5069674;28;20040;-69
2022/04/29 07:32:27;;;;;;;35.65;19.52;;;;;;;10.94;62.94;100709.75;5068938;28;20063;-69
2022/04/29 07:43:05;;;;;;;43.45;21.40;;;;;;;11.24;62.71;100710.41;5069119;28;20103;-70
2022/04/29 07:45:31;;;;;;;35.42;18.58;;;;;;;11.22;63.19;100714.03;5069772;28;20457;-69
2022/04/29 07:47:59;;;;;;;33.13;19.95;;;;;;;11.29;62.73;100711.09;5069271;28;20055;-69
2022/04/29 07:50:24;;;;;;;35.03;21.15;;;;;;;11.34;62.49;100713.56;5070048;28;20035;-68
2022/04/29 07:52:49;;;;;;;27.90;18.65;;;;;;;11.37;62.78;100711.69;5070222;28;20029;-70
2022/04/29 07:55:15;;;;;;;37.20;20.23;;;;;;;11.50;61.74;100711.22;5068117;28;20075;-71
2022/04/29 07:57:40;;;;;;;32.67;18.80;;;;;;;11.57;62.21;100707.44;5071094;28;20048;-70
2022/04/29 08:00:06;;;;;;;32.72;18.83;;;;;;;11.61;62.24;100715.16;5070612;28;20105;-69
2022/04/29 08:02:32;;;;;;;29.13;20.52;;;;;;;11.58;62.33;100709.13;5071779;28;20128;-70
2022/04/29 08:04:57;;;;;;;35.53;23.42;;;;;;;11.68;62.55;100709.63;5072333;28;20104;-70
2022/04/29 08:07:23;;;;;;;28.58;21.38;;;;;;;11.74;61.44;100712.91;5070971;28;20093;-70
2022/04/29 08:09:49;;;;;;;33.05;19.67;;;;;;;11.83;62.09;100709.88;5072922;28;20038;-71
2022/04/29 08:12:14;;;;;;;33.40;18.80;;;;;;;11.86;62.02;100706.25;5072801;28;20025;-69
2022/04/29 08:14:40;;;;;;;29.23;19.55;;;;;;;11.87;61.79;100715.09;5071903;28;20040;-68
2022/04/29 08:17:06;;;;;;;48.60;21.67;;;;;;;11.96;61.92;100720.00;5072081;28;20045;-70
2022/04/29 08:19:31;;;;;;;36.83;22.10;;;;;;;12.09;61.50;100718.59;5072171;28;20050;-70
2022/04/29 08:21:57;;;;;;;33.78;21.83;;;;;;;12.15;60.70;100720.13;5086853;28;20028;-69
2022/04/29 08:24:23;;;;;;;45.88;25.52;;;;;;;12.21;60.77;100710.16;5071114;28;20060;-69
2022/04/29 08:26:48;;;;;;;36.47;19.95;;;;;;;12.31;60.53;100713.28;5071630;28;20063;-70
2022/04/29 08:29:13;;;;;;;34.20;20.25;;;;;;;12.36;59.90;100713.09;5071739;28;20060;-70
2022/04/29 08:31:39;;;;;;;32.97;20.73;;;;;;;12.32;59.42;100716.78;5071174;28;20033;-70
2022/04/29 08:34:09;;;;;;;28.13;18.48;;;;;;;12.44;59.76;100709.19;5071431;28;20032;-69
2022/04/29 08:36:34;;;;;;;29.95;20.02;;;;;;;12.68;59.46;100709.09;5064688;28;20055;-69
2022/04/29 08:39:00;;;;;;;58.10;23.70;;;;;;;12.92;58.95;100699.22;5073705;28;20047;-69
2022/04/29 08:41:25;;;;;;;25.48;18.25;;;;;;;13.08;58.26;100697.59;5075518;28;20088;-69
2022/04/29 08:43:50;;;;;;;37.70;20.77;;;;;;;13.26;58.00;100703.84;5075866;28;20040;-69
2022/04/29 08:46:21;;;;;;;32.05;21.40;;;;;;;13.66;56.19;100706.47;5072784;28;20514;-70
2022/04/29 08:48:47;;;;;;;36.80;26.42;;;;;;;13.87;54.43;100702.78;5071471;28;20040;-69
2022/04/29 08:51:13;;;;;;;28.38;20.70;;;;;;;13.92;54.90;100703.44;5070945;28;20043;-69
2022/04/29 08:53:39;;;;;;;28.38;20.60;;;;;;;14.33;53.51;100707.66;5070978;28;20030;-70
2022/04/29 08:58:49;;;;;;;30.63;21.27;;;;;;;14.70;52.81;100700.50;5066086;28;20257;-70
2022/04/29 09:01:20;;;;;;;34.20;20.25;;;;;;;14.78;52.30;100698.28;5071488;28;20484;-69
2022/04/29 09:03:46;;;;;;;29.95;18.83;;;;;;;14.86;52.05;100696.09;5072696;28;20114;-69
2022/04/29 09:06:12;;;;;;;31.77;20.85;;;;;;;14.74;51.77;100700.25;5072643;28;20081;-69
2022/04/29 09:08:39;;;;;;;28.25;20.02;;;;;;;14.64;51.76;100700.81;5074946;28;20488;-70
2022/04/29 09:11:05;;;;;;;23.60;17.50;;;;;;;14.53;52.06;100703.97;5077207;28;20028;-70
2022/04/29 09:13:35;;;;;;;24.75;18.92;;;;;;;14.65;51.51;100707.84;5076256;28;20082;-70
2022/04/29 09:16:10;;;;;;;35.70;18.45;;;;;;;14.61;50.57;100717.75;5071457;28;20094;-70
2022/04/29 09:18:40;;;;;;;;;;;;;;;14.48;50.48;100719.28;5072197;28;20024;-70
2022/04/29 09:21:16;;;;;;;26.95;18.20;;;;;;;14.43;52.23;100718.66;5071136;28;19919;-70
2022/04/29 09:23:56;;;;;;;24.95;17.48;;;;;;;14.57;51.69;100722.38;5070899;28;20032;-70
2022/04/29 09:26:21;;;;;;;30.33;19.23;;;;;;;14.78;51.19;100715.06;5070790;28;20051;-69
2022/04/29 09:28:47;;;;;;;35.97;18.55;;;;;;;14.95;51.23;100716.00;5071124;28;20420;-69
2022/04/29 09:31:14;;;;;;;29.48;17.92;;;;;;;14.89;51.49;100711.88;5070210;28;20094;-70
2022/04/29 09:33:41;;;;;;;28.13;18.02;;;;;;;14.95;51.56;100716.00;5070709;28;20496;-70
2022/04/29 09:36:06;;;;;;;24.42;18.17;;;;;;;15.05;51.23;100717.22;5069854;28;20044;-69
2022/04/29 09:41:23;;;;;;;28.92;17.95;;;;;;;15.40;50.51;100710.00;5070022;28;20056;-69
2022/04/29 09:43:49;;;;;;;29.48;19.48;;;;;;;15.42;50.26;100701.97;5069865;28;20044;-67
2022/04/29 09:46:19;;;;;;;25.05;20.00;;;;;;;15.43;50.73;100706.31;5059761;28;20032;-68
2022/04/29 09:48:55;;;;;;;31.15;20.70;;;;;;;15.35;50.62;100709.41;5069723;28;20959;-69
2022/04/29 09:51:39;;;;;;;33.97;21.65;;;;;;;15.76;50.22;100713.44;5069431;28;20043;-68
2022/04/29 09:54:18;;;;;;;29.33;18.70;;;;;;;16.30;48.96;100708.56;5069848;28;20036;-69
2022/04/29 09:56:45;;;;;;;30.45;18.70;;;;;;;16.67;47.56;100714.38;5070173;28;20400;-68
2022/04/29 09:59:11;;;;;;;24.83;18.30;;;;;;;16.86;47.33;100715.03;5069514;28;20123;-70
2022/04/29 10:01:37;;;;;;;26.73;18.77;;;;;;;16.99;46.70;100708.94;5069457;28;20111;-69
2022/04/29 10:04:03;;;;;;;28.83;18.98;;;;;;;16.94;46.98;100709.22;5069661;28;20086;-69
2022/04/29 10:06:31;;;;;;;28.33;18.40;;;;;;;16.73;47.15;100708.66;5069912;28;20490;-68
2022/04/29 10:08:58;;;;;;;22.77;18.48;;;;;;;16.71;47.60;100713.22;5069753;28;20358;-69
2022/04/29 10:11:27;;;;;;;31.17;19.63;;;;;;;16.67;47.59;100709.06;5069020;28;20111;-68
2022/04/29 10:13:53;;;;;;;29.77;19.27;;;;;;;16.37;48.78;100709.06;5070050;28;20033;-69
2022/04/29 10:16:19;;;;;;;24.88;18.52;;;;;;;16.20;49.46;100716.22;5070145;28;20047;-71
2022/04/29 10:21:40;;;;;;;30.80;20.45;;;;;;;16.13;49.75;100712.19;5070263;28;20090;-69
2022/04/29 10:24:05;;;;;;;31.67;19.48;;;;;;;16.33;49.34;100705.72;5070878;28;20056;-69
2022/04/29 10:26:31;;;;;;;32.47;19.58;;;;;;;16.63;48.83;100702.19;5074327;28;20051;-68
2022/04/29 10:28:57;;;;;;;33.80;20.85;;;;;;;17.38;47.38;100701.13;5073734;28;20577;-69
2022/04/29 10:31:23;;;;;;;33.20;20.80;;;;;;;17.74;45.87;100707.72;5075616;28;20036;-69
2022/04/29 10:33:49;;;;;;;32.63;19.38;;;;;;;17.90;45.46;100696.97;5077645;28;20052;-67
2022/04/29 10:36:16;;;;;;;33.08;20.92;;;;;;;17.71;45.26;100702.59;5074374;28;20085;-68
2022/04/29 10:38:48;;;;;;;26.30;19.08;;;;;;;17.73;45.51;100706.03;5071138;28;20024;-69
2022/04/29 10:41:25;;;;;;;23.45;18.23;;;;;;;17.89;44.78;100699.72;5069810;28;20461;-69
2022/04/29 10:43:50;;;;;;;30.13;18.77;;;;;;;17.67;45.24;100698.44;5072640;28;20029;-69
2022/04/29 10:46:24;;;;;;;24.02;19.75;;;;;;;16.94;46.62;100693.25;5070589;28;20480;-69
2022/04/29 10:48:52;;;;;;;24.58;19.25;;;;;;;16.55;47.17;100693.81;5068811;28;20040;-70
2022/04/29 10:51:19;;;;;;;25.95;17.58;;;;;;;16.56;47.87;100695.50;5069023;28;20043;-69
2022/04/29 10:53:48;;;;;;;27.15;18.83;;;;;;;16.26;48.10;100691.06;5069111;28;20028;-69
2022/04/29 10:56:31;;;;;;;25.65;19.92;;;;;;;16.04;48.68;100686.97;5069122;28;20115;-70
2022/04/29 10:59:12;;;;;;;30.95;19.30;;;;;;;15.95;49.59;100682.19;5067239;28;20520;-69
2022/04/29 11:01:41;;;;;;;29.02;20.05;;;;;;;16.04;49.70;100680.78;5068059;28;20056;-68
2022/04/29 11:04:28;;;;;;;30.90;19.63;;;;;;;16.13;49.25;100676.75;5069107;28;20024;-69
2022/04/29 11:06:53;;;;;;;26.55;19.27;;;;;;;16.25;49.02;100676.06;5085082;28;20036;-68
2022/04/29 11:09:25;;;;;;;21.00;15.05;;;;;;;16.47;47.13;100681.81;5073161;28;20104;-70
2022/04/29 11:11:51;;;;;;;21.38;17.00;;;;;;;16.52;47.12;100673.56;5072929;28;20491;-70
2022/04/29 11:14:17;;;;;;;24.25;17.10;;;;;;;16.41;47.54;100674.19;5071656;28;20427;-71
2022/04/29 11:16:49;;;;;;;25.88;17.00;;;;;;;16.50;47.30;100670.97;5071983;28;20130;-70
2022/04/29 11:19:22;;;;;;;29.25;18.98;;;;;;;16.39;46.94;100670.78;5070186;28;20044;-70
2022/04/29 11:24:46;;;;;;;28.35;17.65;;;;;;;16.40;47.45;100675.13;5073758;28;20429;-69
2022/04/29 11:27:12;;;;;;;23.40;17.08;;;;;;;16.27;47.79;100671.50;5074062;28;20032;-68
2022/04/29 11:29:42;;;;;;;21.98;16.00;;;;;;;16.24;47.94;100669.88;5073750;28;20036;-70
2022/04/29 11:32:08;;;;;;;24.42;17.73;;;;;;;16.13;48.46;100674.09;5074110;28;20037;-69
2022/04/29 11:34:34;;;;;;;25.20;18.15;;;;;;;16.12;48.34;100673.25;5074909;28;20406;-68
2022/04/29 11:37:00;;;;;;;30.88;18.33;;;;;;;15.92;48.20;100681.50;5072979;28;20547;-71